• Join FlightAware (Why Join?)
  • Login
  • US Flag 
11:02AM EDT


 

Airport Tracker/Info


-or-


 

Live Flight TrackerFlight Track Log ✈ FLG3563 ✈ 15-Jun-2014 ✈ KMSP - KIND

Flight Track Log - Related Links

Times and Time Zones

All times are in EDT time to prevent confusion due to time zone crossing. See the FLG3563 flight status page for this flight to view local times or setup timezone preferences in your user account.

Time Position Orientation Groundspeed Altitude Reporting Facility
EDT Latitude Longitude Course Direction KTS MPH feet Rate Location/Type
10:44AM 44.8500 -93.2333 133° Southeast 143 165 2,800  Level Minneapolis TRACON
10:45AM 44.8167 -93.1833 133° Southeast 217 250 4,800 1,920 Climbing Minneapolis TRACON
10:46AM 44.7661 -93.0822 125° Southeast 258 297 7,200 1,620 Climbing Minneapolis Center
10:47AM 44.7083 -93.0078 138° Southeast 279 321 8,600 1,620 Climbing Minneapolis Center
10:48AM 44.6489 -92.9333 138° Southeast 287 330 10,600 1,560 Climbing Minneapolis Center
10:49AM 44.5753 -92.8272 134° Southeast 326 375 11,900 1,680 Climbing Minneapolis Center
10:50AM 44.5150 -92.7283 131° Southeast 333 383 14,100 1,800 Climbing Minneapolis Center
10:51AM 44.4550 -92.6317 131° Southeast 329 379 15,700 1,140 Climbing Minneapolis Center
10:52AM 44.3925 -92.5331 132° Southeast 338 389 16,500 720 Climbing Minneapolis Center
10:53AM 44.3297 -92.4244 129° Southeast 356 410 17,300 900 Climbing Minneapolis Center
10:54AM 44.2761 -92.2983 121° Southeast 372 428 18,400 960 Climbing Minneapolis Center
10:55AM 44.2114 -92.1483 121° Southeast 375 432 19,300 720 Climbing Minneapolis Center
10:56AM 44.1544 -92.0175 121° Southeast 387 445 19,900 600 Climbing Minneapolis Center
10:57AM 44.0958 -91.8864 122° Southeast 395 455 20,600 720 Climbing Minneapolis Center
10:58AM 44.0397 -91.7547 121° Southeast 396 456 21,400 780 Climbing Minneapolis Center
10:59AM 43.9778 -91.6164 122° Southeast 396 456 22,300 720 Climbing Minneapolis Center
11:00AM 43.9197 -91.4867 122° Southeast 396 456 23,000 300 Climbing Minneapolis Center
11:01AM 43.8464 -91.3733 132° Southeast 397 457 23,000 300 Level Minneapolis Center
11:02AM 43.7683 -91.2675 136° Southeast 397 457 23,700 720 Climbing Minneapolis Center
11:04AM 43.6764 -91.1369 134° Southeast 397 457 24,600 660 Climbing Minneapolis Center
11:05AM 43.5989 -91.0314 135° Southeast 396 456 25,100 480 Climbing Minneapolis Center
11:06AM 43.5200 -90.9203 134° Southeast 400 460 25,600 480 Climbing Minneapolis Center
11:07AM 43.4403 -90.8117 135° Southeast 402 463 26,200 480 Climbing Minneapolis Center
11:08AM 43.3600 -90.7019 135° Southeast 405 466 26,700 420 Climbing Minneapolis Center
11:09AM 43.2794 -90.5914 135° Southeast 407 468 27,100 480 Climbing Minneapolis Center
11:10AM 43.1808 -90.4583 135° Southeast 412 474 27,800 600 Climbing Minneapolis Center
11:11AM 43.0994 -90.3478 135° Southeast 412 474 28,400 540 Climbing Minneapolis Center
11:12AM 43.0158 -90.2358 136° Southeast 413 475 29,000 540 Climbing Minneapolis Center
11:13AM 42.9350 -90.1272 135° Southeast 412 474 29,600 540 Climbing Minneapolis Center
11:14AM 42.8569 -90.0219 135° Southeast 406 467 30,200 480 Climbing Minneapolis Center
11:15AM 42.7408 -89.8661 135° Southeast 411 473 30,900 300 Climbing Chicago Center
11:16AM 42.6589 -89.7578 136° Southeast 411 473 31,000  Climbing Chicago Center
11:17AM 42.5586 -89.6253 136° Southeast 419 482 31,000  Level Chicago Center
11:18AM 42.4708 -89.5106 136° Southeast 435 501 31,000  Level Chicago Center
11:19AM 42.3822 -89.3958 136° Southeast 441 507 31,000  Level Chicago Center
11:20AM 42.2933 -89.2786 136° Southeast 444 511 31,000  Level Chicago Center
11:21AM 42.2053 -89.1642 136° Southeast 444 511 31,000  Level Chicago Center
11:22AM 42.1153 -89.0475 136° Southeast 445 512 31,000  Level Chicago Center
11:23AM 42.0206 -88.9228 136° Southeast 449 517 31,000  Level Chicago Center
11:25AM 41.9306 -88.8089 137° Southeast 449 517 31,000 -180 Level Chicago Center
11:26AM 41.8203 -88.6689 137° Southeast 450 518 30,700 -960 Descending Chicago Center
11:27AM 41.7289 -88.5494 136° Southeast 457 526 29,100 -1,500 Descending Chicago Center
11:28AM 41.6372 -88.4336 137° Southeast 457 526 27,600 -1,440 Descending Chicago Center
11:29AM 41.5461 -88.3217 137° Southeast 451 519 26,200 -1,320 Descending Chicago Center
11:30AM 41.4469 -88.2400 148° Southeast 427 491 25,000 -600 Descending Chicago Center
11:31AM 41.3339 -88.1492 149° Southeast 406 467 25,000  Level Chicago Center
11:32AM 41.2372 -88.0744 150° Southeast 407 468 25,000  Level Chicago Center
11:33AM 41.1406 -87.9969 149° Southeast 408 470 25,000  Level Chicago Center
11:34AM 41.0400 -87.9181 149° Southeast 418 481 25,000 -540 Level Chicago Center
11:35AM 40.9411 -87.8386 149° Southeast 419 482 24,000 -1,020 Descending Chicago Center
11:36AM 40.8442 -87.7631 149° Southeast 408 470 23,000 -1,380 Descending Chicago Center
11:37AM 40.7458 -87.6503 139° Southeast 397 457 21,200 -1,500 Descending Chicago Center
11:38AM 40.6708 -87.5494 134° Southeast 392 451 19,900 -1,140 Descending Chicago Center
11:39AM 40.5975 -87.4506 134° Southeast 382 440 18,900 -1,020 Descending Chicago Center
11:40AM 40.5225 -87.3561 136° Southeast 377 434 17,900 -1,020 Descending Chicago Center
11:41AM 40.4456 -87.2525 134° Southeast 370 426 16,900 -1,080 Descending Chicago Center
11:42AM 40.3731 -87.1550 134° Southeast 371 427 15,800 -1,080 Descending Chicago Center
11:43AM 40.3017 -87.0606 135° Southeast 369 425 14,700 -1,080 Descending Chicago Center
11:44AM 40.2308 -86.9669 135° Southeast 364 419 13,600 -1,260 Descending Chicago Center
11:45AM 40.1619 -86.8756 135° Southeast 357 411 12,200 -1,260 Descending Chicago Center
11:46AM 40.0800 -86.7697 135° Southeast 347 399 11,000 -600 Descending Chicago Center
11:47AM 40.0144 -86.6836 135° Southeast 337 388 11,000 -420 Level Chicago Center
11:48AM 39.9525 -86.6014 134° Southeast 315 362 10,200 -1,260 Descending Chicago Center
11:49AM 39.8967 -86.5286 135° Southeast 288 331 8,400 -1,860 Descending Chicago Center
11:50AM 39.8575 -86.4439 121° Southeast 286 329 6,500 -1,980 Descending Chicago Center
11:51AM 39.8500 -86.3333 95° East 283 326 4,500 -1,380 Descending Indianapolis TRACON
11:52AM 39.8500 -86.2333 90° East 244 281 3,900 -780 Descending Indianapolis TRACON
11:53AM 39.8000 -86.1833 142° Southeast 185 213 2,900 -900 Descending Indianapolis TRACON
11:54AM 39.7667 -86.2167 218° Southwest 170 196 2,100 -780 Descending Indianapolis TRACON
11:55AM 39.7333 -86.2500 218° Southwest 138 159 1,400 -540 Descending Indianapolis TRACON
11:57AM 39.6992 -86.3033 230° Southwest 144 166 800 -480 Descending Indianapolis Center